sensor_id;sensor_type;location;lat;lon;timestamp;pressure;altitude;pressure_sealevel;temperature;humidity
17230;BME280;8731;50.364;8.958;2023-05-20T00:00:17;100491.59;;;15.45;63.27
17230;BME280;8731;50.364;8.958;2023-05-20T00:04:39;100486.09;;;15.40;63.49
17230;BME280;8731;50.364;8.958;2023-05-20T00:09:04;100494.03;;;15.43;63.40
17230;BME280;8731;50.364;8.958;2023-05-20T00:13:26;100495.72;;;15.43;63.06
17230;BME280;8731;50.364;8.958;2023-05-20T00:17:49;100496.25;;;15.39;63.81
17230;BME280;8731;50.364;8.958;2023-05-20T00:22:11;100496.84;;;15.46;62.37
17230;BME280;8731;50.364;8.958;2023-05-20T00:26:35;100485.47;;;15.32;63.60
17230;BME280;8731;50.364;8.958;2023-05-20T00:30:57;100478.75;;;15.45;62.60
17230;BME280;8731;50.364;8.958;2023-05-20T00:35:19;100477.88;;;15.44;62.76
17230;BME280;8731;50.364;8.958;2023-05-20T00:39:42;100486.03;;;15.28;64.85
17230;BME280;8731;50.364;8.958;2023-05-20T00:44:06;100479.34;;;15.30;63.51
17230;BME280;8731;50.364;8.958;2023-05-20T00:48:32;100484.41;;;15.19;63.95
17230;BME280;8731;50.364;8.958;2023-05-20T00:53:00;100481.44;;;15.24;63.26
17230;BME280;8731;50.364;8.958;2023-05-20T00:57:23;100479.19;;;15.07;65.76
17230;BME280;8731;50.364;8.958;2023-05-20T01:01:47;100472.78;;;15.34;64.10
17230;BME280;8731;50.364;8.958;2023-05-20T01:06:10;100482.69;;;15.29;63.75
17230;BME280;8731;50.364;8.958;2023-05-20T01:10:32;100467.81;;;15.25;64.94
17230;BME280;8731;50.364;8.958;2023-05-20T01:15:04;100466.59;;;15.10;66.31
17230;BME280;8731;50.364;8.958;2023-05-20T01:19:35;100474.94;;;15.18;64.86
17230;BME280;8731;50.364;8.958;2023-05-20T01:24:05;100470.97;;;15.11;66.23
17230;BME280;8731;50.364;8.958;2023-05-20T01:28:27;100472.94;;;15.03;67.26
17230;BME280;8731;50.364;8.958;2023-05-20T01:32:54;100466.53;;;14.98;67.76
17230;BME280;8731;50.364;8.958;2023-05-20T01:37:24;100465.66;;;14.98;67.26
17230;BME280;8731;50.364;8.958;2023-05-20T01:41:50;100466.13;;;15.04;65.78
17230;BME280;8731;50.364;8.958;2023-05-20T01:46:14;100455.84;;;15.14;65.88
17230;BME280;8731;50.364;8.958;2023-05-20T01:50:36;100450.06;;;15.17;65.78
17230;BME280;8731;50.364;8.958;2023-05-20T01:55:00;100451.09;;;15.09;66.61
17230;BME280;8731;50.364;8.958;2023-05-20T01:59:24;100453.31;;;15.04;67.77
17230;BME280;8731;50.364;8.958;2023-05-20T02:03:46;100434.41;;;15.14;66.59
17230;BME280;8731;50.364;8.958;2023-05-20T02:08:09;100437.13;;;15.15;66.84
17230;BME280;8731;50.364;8.958;2023-05-20T02:12:31;100436.56;;;15.19;65.98
17230;BME280;8731;50.364;8.958;2023-05-20T02:16:55;100432.34;;;15.20;66.03
17230;BME280;8731;50.364;8.958;2023-05-20T02:21:17;100424.41;;;15.17;66.52
17230;BME280;8731;50.364;8.958;2023-05-20T02:25:40;100427.88;;;15.17;65.76
17230;BME280;8731;50.364;8.958;2023-05-20T02:30:05;100430.91;;;15.23;66.04
17230;BME280;8731;50.364;8.958;2023-05-20T02:34:31;100425.41;;;15.19;66.51
17230;BME280;8731;50.364;8.958;2023-05-20T02:38:53;100425.66;;;15.22;66.24
17230;BME280;8731;50.364;8.958;2023-05-20T02:43:16;100426.66;;;15.02;68.36
17230;BME280;8731;50.364;8.958;2023-05-20T02:47:38;100426.09;;;15.06;68.17
17230;BME280;8731;50.364;8.958;2023-05-20T02:52:02;100419.94;;;15.14;66.43
17230;BME280;8731;50.364;8.958;2023-05-20T02:56:25;100424.56;;;15.08;67.72
17230;BME280;8731;50.364;8.958;2023-05-20T03:00:47;100424.91;;;15.13;67.22
17230;BME280;8731;50.364;8.958;2023-05-20T03:05:10;100427.34;;;15.11;66.66
17230;BME280;8731;50.364;8.958;2023-05-20T03:09:35;100420.31;;;15.09;68.11
17230;BME280;8731;50.364;8.958;2023-05-20T03:13:58;100415.72;;;15.04;65.91
17230;BME280;8731;50.364;8.958;2023-05-20T03:18:21;100411.84;;;15.10;67.44
17230;BME280;8731;50.364;8.958;2023-05-20T03:22:43;100410.28;;;15.12;67.20
17230;BME280;8731;50.364;8.958;2023-05-20T03:27:07;100416.97;;;15.10;67.49
17230;BME280;8731;50.364;8.958;2023-05-20T03:31:29;100410.91;;;14.97;69.31
17230;BME280;8731;50.364;8.958;2023-05-20T03:35:51;100418.84;;;15.00;67.81
17230;BME280;8731;50.364;8.958;2023-05-20T03:40:14;100408.38;;;15.09;66.95
17230;BME280;8731;50.364;8.958;2023-05-20T03:44:38;100407.25;;;15.05;67.29
17230;BME280;8731;50.364;8.958;2023-05-20T03:49:01;100417.09;;;15.11;67.08
17230;BME280;8731;50.364;8.958;2023-05-20T03:53:24;100406.44;;;14.95;68.55
17230;BME280;8731;50.364;8.958;2023-05-20T03:57:46;100409.13;;;14.96;67.54
17230;BME280;8731;50.364;8.958;2023-05-20T04:02:10;100420.69;;;14.91;67.10
17230;BME280;8731;50.364;8.958;2023-05-20T04:06:33;100413.91;;;14.82;70.46
17230;BME280;8731;50.364;8.958;2023-05-20T04:10:56;100423.75;;;14.87;67.75
17230;BME280;8731;50.364;8.958;2023-05-20T04:15:18;100414.91;;;14.94;68.97
17230;BME280;8731;50.364;8.958;2023-05-20T04:19:48;100425.16;;;14.94;68.36
17230;BME280;8731;50.364;8.958;2023-05-20T04:24:11;100419.25;;;14.95;68.55
17230;BME280;8731;50.364;8.958;2023-05-20T04:28:34;100420.09;;;15.05;68.68
17230;BME280;8731;50.364;8.958;2023-05-20T04:32:57;100422.53;;;15.04;69.29
17230;BME280;8731;50.364;8.958;2023-05-20T04:37:24;100417.63;;;15.07;68.15
17230;BME280;8731;50.364;8.958;2023-05-20T04:41:46;100417.63;;;15.07;68.83
17230;BME280;8731;50.364;8.958;2023-05-20T04:46:08;100416.59;;;15.15;68.65
17230;BME280;8731;50.364;8.958;2023-05-20T04:50:31;100425.69;;;15.12;69.94
17230;BME280;8731;50.364;8.958;2023-05-20T04:54:55;100422.34;;;15.13;69.49
17230;BME280;8731;50.364;8.958;2023-05-20T04:59:18;100423.97;;;15.22;68.73
17230;BME280;8731;50.364;8.958;2023-05-20T05:03:40;100412.16;;;15.24;69.74
17230;BME280;8731;50.364;8.958;2023-05-20T05:08:03;100420.31;;;15.30;69.89
17230;BME280;8731;50.364;8.958;2023-05-20T05:12:30;100420.16;;;15.17;71.79
17230;BME280;8731;50.364;8.958;2023-05-20T05:16:53;100420.56;;;15.33;69.82
17230;BME280;8731;50.364;8.958;2023-05-20T05:21:15;100420.69;;;15.13;71.68
17230;BME280;8731;50.364;8.958;2023-05-20T05:25:40;100419.28;;;15.39;70.33
17230;BME280;8731;50.364;8.958;2023-05-20T05:30:05;100416.09;;;15.09;73.27
17230;BME280;8731;50.364;8.958;2023-05-20T05:34:28;100415.31;;;15.32;68.55
17230;BME280;8731;50.364;8.958;2023-05-20T05:43:17;100403.44;;;15.44;71.44
17230;BME280;8731;50.364;8.958;2023-05-20T05:47:43;100411.72;;;15.52;71.49
17230;BME280;8731;50.364;8.958;2023-05-20T05:52:05;100403.94;;;15.28;72.46
17230;BME280;8731;50.364;8.958;2023-05-20T05:56:29;100394.53;;;15.51;71.85
17230;BME280;8731;50.364;8.958;2023-05-20T06:00:52;100400.34;;;15.82;69.94
17230;BME280;8731;50.364;8.958;2023-05-20T06:05:16;100397.97;;;15.40;72.82
17230;BME280;8731;50.364;8.958;2023-05-20T06:09:39;100399.09;;;15.43;72.56
17230;BME280;8731;50.364;8.958;2023-05-20T06:14:02;100392.69;;;15.60;71.88
17230;BME280;8731;50.364;8.958;2023-05-20T06:18:25;100397.75;;;15.70;70.89
17230;BME280;8731;50.364;8.958;2023-05-20T06:22:52;100399.22;;;15.78;71.31
17230;BME280;8731;50.364;8.958;2023-05-20T06:27:16;100399.28;;;16.02;70.03
17230;BME280;8731;50.364;8.958;2023-05-20T06:31:40;100393.56;;;15.94;70.55
17230;BME280;8731;50.364;8.958;2023-05-20T06:36:02;100377.41;;;16.30;68.68
17230;BME280;8731;50.364;8.958;2023-05-20T06:40:27;100388.59;;;16.42;68.75
17230;BME280;8731;50.364;8.958;2023-05-20T06:44:50;100380.28;;;16.00;71.68
17230;BME280;8731;50.364;8.958;2023-05-20T06:49:26;100387.00;;;15.86;71.95
17230;BME280;8731;50.364;8.958;2023-05-20T06:53:48;100381.22;;;16.70;68.76
17230;BME280;8731;50.364;8.958;2023-05-20T06:58:12;100385.88;;;16.52;69.78
17230;BME280;8731;50.364;8.958;2023-05-20T07:02:36;100371.19;;;17.10;67.12
17230;BME280;8731;50.364;8.958;2023-05-20T07:06:59;100369.91;;;17.16;67.28
17230;BME280;8731;50.364;8.958;2023-05-20T07:11:22;100371.50;;;17.14;66.91
17230;BME280;8731;50.364;8.958;2023-05-20T07:15:46;100367.88;;;17.24;66.04
17230;BME280;8731;50.364;8.958;2023-05-20T07:20:10;100362.88;;;17.89;66.07
17230;BME280;8731;50.364;8.958;2023-05-20T07:24:33;100358.81;;;17.92;65.55
17230;BME280;8731;50.364;8.958;2023-05-20T07:28:58;100359.59;;;17.66;65.36
17230;BME280;8731;50.364;8.958;2023-05-20T07:33:23;100356.06;;;18.02;65.59
17230;BME280;8731;50.364;8.958;2023-05-20T07:37:45;100343.22;;;18.96;62.55
17230;BME280;8731;50.364;8.958;2023-05-20T07:42:08;100329.63;;;19.42;61.31
17230;BME280;8731;50.364;8.958;2023-05-20T07:46:33;100328.88;;;19.87;60.39
17230;BME280;8731;50.364;8.958;2023-05-20T07:51:00;100337.19;;;18.83;61.24
17230;BME280;8731;50.364;8.958;2023-05-20T07:55:23;100319.34;;;20.61;57.21
17230;BME280;8731;50.364;8.958;2023-05-20T07:59:46;100335.28;;;20.23;57.51
17230;BME280;8731;50.364;8.958;2023-05-20T08:10:16;100347.94;;;19.04;59.58
17230;BME280;8731;50.364;8.958;2023-05-20T08:14:41;100330.72;;;20.48;56.98
17230;BME280;8731;50.364;8.958;2023-05-20T08:19:05;100314.66;;;20.70;56.84
17230;BME280;8731;50.364;8.958;2023-05-20T08:23:28;100325.81;;;20.38;56.45
17230;BME280;8731;50.364;8.958;2023-05-20T08:27:52;100326.59;;;19.91;57.59
17230;BME280;8731;50.364;8.958;2023-05-20T08:32:15;100312.59;;;20.96;56.66
17230;BME280;8731;50.364;8.958;2023-05-20T08:36:39;100318.44;;;21.40;56.35
17230;BME280;8731;50.364;8.958;2023-05-20T08:41:01;100316.00;;;21.27;55.41
17230;BME280;8731;50.364;8.958;2023-05-20T08:45:26;100319.16;;;20.58;56.45
17230;BME280;8731;50.364;8.958;2023-05-20T08:50:00;100302.41;;;20.99;56.16
17230;BME280;8731;50.364;8.958;2023-05-20T08:54:25;100300.28;;;21.57;55.00
17230;BME280;8731;50.364;8.958;2023-05-20T08:58:57;100301.63;;;22.00;53.40
17230;BME280;8731;50.364;8.958;2023-05-20T09:03:22;100294.94;;;23.55;50.94
17230;BME280;8731;50.364;8.958;2023-05-20T09:07:46;100297.09;;;23.45;50.80
17230;BME280;8731;50.364;8.958;2023-05-20T09:12:08;100305.50;;;23.58;49.16
17230;BME280;8731;50.364;8.958;2023-05-20T09:16:32;100309.97;;;23.22;50.72
17230;BME280;8731;50.364;8.958;2023-05-20T09:20:56;100323.22;;;22.90;49.18
17230;BME280;8731;50.364;8.958;2023-05-20T09:25:25;100325.88;;;22.19;51.86
17230;BME280;8731;50.364;8.958;2023-05-20T09:29:48;100321.72;;;22.04;52.08
17230;BME280;8731;50.364;8.958;2023-05-20T09:34:12;100328.50;;;21.34;53.96
17230;BME280;8731;50.364;8.958;2023-05-20T09:38:38;100313.81;;;21.85;53.24
17230;BME280;8731;50.364;8.958;2023-05-20T09:43:02;100298.00;;;22.32;52.26
17230;BME280;8731;50.364;8.958;2023-05-20T09:47:26;100294.56;;;21.80;52.51
17230;BME280;8731;50.364;8.958;2023-05-20T09:51:51;100308.84;;;22.06;52.67
17230;BME280;8731;50.364;8.958;2023-05-20T09:56:19;100301.16;;;21.91;53.31
17230;BME280;8731;50.364;8.958;2023-05-20T10:00:44;100306.03;;;21.51;52.13
17230;BME280;8731;50.364;8.958;2023-05-20T10:05:13;100288.03;;;21.88;52.46
17230;BME280;8731;50.364;8.958;2023-05-20T10:09:52;100307.19;;;21.24;53.94
17230;BME280;8731;50.364;8.958;2023-05-20T10:14:33;100301.88;;;20.73;54.80
17230;BME280;8731;50.364;8.958;2023-05-20T10:19:13;100310.16;;;20.82;55.31
17230;BME280;8731;50.364;8.958;2023-05-20T10:23:48;100284.31;;;23.11;50.93
17230;BME280;8731;50.364;8.958;2023-05-20T10:28:11;100287.47;;;22.84;51.23
17230;BME280;8731;50.364;8.958;2023-05-20T10:32:36;100296.25;;;20.97;54.09
17230;BME280;8731;50.364;8.958;2023-05-20T10:37:20;100298.34;;;20.88;54.85
17230;BME280;8731;50.364;8.958;2023-05-20T10:41:46;100307.75;;;20.86;53.79
17230;BME280;8731;50.364;8.958;2023-05-20T10:46:16;100300.47;;;20.47;56.06
17230;BME280;8731;50.364;8.958;2023-05-20T10:50:41;100290.28;;;21.30;53.85
17230;BME280;8731;50.364;8.958;2023-05-20T10:55:06;100282.88;;;22.24;52.45
17230;BME280;8731;50.364;8.958;2023-05-20T10:59:42;100290.50;;;20.39;55.83
17230;BME280;8731;50.364;8.958;2023-05-20T11:04:05;100273.72;;;21.96;52.89
17230;BME280;8731;50.364;8.958;2023-05-20T11:08:30;100262.00;;;20.53;55.03
17230;BME280;8731;50.364;8.958;2023-05-20T11:12:52;100257.56;;;20.67;54.68
17230;BME280;8731;50.364;8.958;2023-05-20T11:17:17;100261.44;;;20.75;54.25
17230;BME280;8731;50.364;8.958;2023-05-20T11:21:42;100259.56;;;22.06;52.69
17230;BME280;8731;50.364;8.958;2023-05-20T11:26:06;100247.47;;;22.24;51.96
17230;BME280;8731;50.364;8.958;2023-05-20T11:30:29;100265.47;;;20.54;55.38
17230;BME280;8731;50.364;8.958;2023-05-20T11:34:52;100260.22;;;20.21;56.56
17230;BME280;8731;50.364;8.958;2023-05-20T11:39:15;100250.00;;;20.39;55.92
17230;BME280;8731;50.364;8.958;2023-05-20T11:43:43;100254.44;;;20.89;56.25
17230;BME280;8731;50.364;8.958;2023-05-20T11:48:06;100255.47;;;21.09;54.09
17230;BME280;8731;50.364;8.958;2023-05-20T11:52:32;100247.50;;;21.72;53.36
17230;BME280;8731;50.364;8.958;2023-05-20T11:56:55;100241.06;;;21.82;53.45
17230;BME280;8731;50.364;8.958;2023-05-20T12:01:21;100234.97;;;21.99;53.16
17230;BME280;8731;50.364;8.958;2023-05-20T12:05:45;100235.72;;;20.46;56.58
17230;BME280;8731;50.364;8.958;2023-05-20T12:10:09;100223.84;;;20.98;55.26
17230;BME280;8731;50.364;8.958;2023-05-20T12:14:33;100224.50;;;20.94;54.86
17230;BME280;8731;50.364;8.958;2023-05-20T12:18:58;100223.03;;;21.32;56.41
17230;BME280;8731;50.364;8.958;2023-05-20T12:23:21;100220.34;;;21.82;54.69
17230;BME280;8731;50.364;8.958;2023-05-20T12:27:45;100216.41;;;21.55;54.74
17230;BME280;8731;50.364;8.958;2023-05-20T12:32:08;100219.25;;;20.93;56.42
17230;BME280;8731;50.364;8.958;2023-05-20T12:36:36;100214.91;;;21.60;55.40
17230;BME280;8731;50.364;8.958;2023-05-20T12:40:58;100210.38;;;21.05;56.09
17230;BME280;8731;50.364;8.958;2023-05-20T12:45:21;100201.84;;;21.06;56.68
17230;BME280;8731;50.364;8.958;2023-05-20T12:49:43;100206.94;;;20.89;56.74
17230;BME280;8731;50.364;8.958;2023-05-20T12:54:07;100217.91;;;21.51;55.79
17230;BME280;8731;50.364;8.958;2023-05-20T12:58:30;100206.97;;;21.74;55.54
17230;BME280;8731;50.364;8.958;2023-05-20T13:02:52;100207.16;;;21.09;56.20
17230;BME280;8731;50.364;8.958;2023-05-20T13:07:15;100193.75;;;22.41;54.43
17230;BME280;8731;50.364;8.958;2023-05-20T13:11:39;100181.69;;;22.04;56.18
17230;BME280;8731;50.364;8.958;2023-05-20T13:16:04;100174.50;;;21.29;56.99
17230;BME280;8731;50.364;8.958;2023-05-20T13:20:28;100164.78;;;21.77;55.72
17230;BME280;8731;50.364;8.958;2023-05-20T13:24:51;100164.75;;;22.13;54.05
17230;BME280;8731;50.364;8.958;2023-05-20T13:29:16;100152.09;;;22.01;55.37
17230;BME280;8731;50.364;8.958;2023-05-20T13:33:39;100157.94;;;22.15;54.41
17230;BME280;8731;50.364;8.958;2023-05-20T13:38:03;100143.63;;;22.61;53.66
17230;BME280;8731;50.364;8.958;2023-05-20T13:42:25;100147.72;;;22.37;54.54
17230;BME280;8731;50.364;8.958;2023-05-20T13:46:49;100147.38;;;22.29;54.17
17230;BME280;8731;50.364;8.958;2023-05-20T13:51:12;100134.16;;;22.81;53.36
17230;BME280;8731;50.364;8.958;2023-05-20T13:55:34;100124.88;;;22.68;53.65
17230;BME280;8731;50.364;8.958;2023-05-20T13:59:56;100123.38;;;22.93;53.50
17230;BME280;8731;50.364;8.958;2023-05-20T14:04:20;100129.59;;;21.82;54.81
17230;BME280;8731;50.364;8.958;2023-05-20T14:08:46;100122.13;;;21.53;55.81
17230;BME280;8731;50.364;8.958;2023-05-20T14:13:10;100115.06;;;21.86;55.02
17230;BME280;8731;50.364;8.958;2023-05-20T14:17:33;100106.22;;;22.00;56.01
17230;BME280;8731;50.364;8.958;2023-05-20T14:21:57;100098.78;;;22.25;55.26
17230;BME280;8731;50.364;8.958;2023-05-20T14:26:20;100105.56;;;21.49;55.38
17230;BME280;8731;50.364;8.958;2023-05-20T14:30:42;100092.28;;;22.16;54.82
17230;BME280;8731;50.364;8.958;2023-05-20T14:35:06;100098.94;;;22.68;54.27
17230;BME280;8731;50.364;8.958;2023-05-20T14:39:30;100100.41;;;22.23;55.04
17230;BME280;8731;50.364;8.958;2023-05-20T14:43:53;100102.47;;;21.56;55.56
17230;BME280;8731;50.364;8.958;2023-05-20T14:48:15;100086.66;;;22.45;54.55
17230;BME280;8731;50.364;8.958;2023-05-20T14:52:38;100081.97;;;21.99;55.77
17230;BME280;8731;50.364;8.958;2023-05-20T14:57:04;100074.75;;;22.29;54.47
17230;BME280;8731;50.364;8.958;2023-05-20T15:01:27;100075.66;;;21.56;56.46
17230;BME280;8731;50.364;8.958;2023-05-20T15:05:49;100072.97;;;22.28;55.00
17230;BME280;8731;50.364;8.958;2023-05-20T15:10:12;100074.81;;;21.94;55.61
17230;BME280;8731;50.364;8.958;2023-05-20T15:14:37;100083.56;;;21.96;56.58
17230;BME280;8731;50.364;8.958;2023-05-20T15:18:59;100073.44;;;22.39;54.53
17230;BME280;8731;50.364;8.958;2023-05-20T15:23:22;100076.72;;;22.16;54.41
17230;BME280;8731;50.364;8.958;2023-05-20T15:27:45;100074.22;;;21.80;56.25
17230;BME280;8731;50.364;8.958;2023-05-20T15:32:10;100071.34;;;21.93;55.52
17230;BME280;8731;50.364;8.958;2023-05-20T15:36:32;100069.94;;;21.63;56.17
17230;BME280;8731;50.364;8.958;2023-05-20T15:40:55;100066.44;;;21.80;55.67
17230;BME280;8731;50.364;8.958;2023-05-20T15:45:19;100058.97;;;21.51;56.50
17230;BME280;8731;50.364;8.958;2023-05-20T15:49:43;100063.06;;;21.45;56.80
17230;BME280;8731;50.364;8.958;2023-05-20T15:54:06;100062.53;;;21.53;56.94
17230;BME280;8731;50.364;8.958;2023-05-20T15:58:29;100050.31;;;21.50;57.22
17230;BME280;8731;50.364;8.958;2023-05-20T16:02:51;100051.13;;;21.67;57.49
17230;BME280;8731;50.364;8.958;2023-05-20T16:07:17;100046.28;;;21.55;57.71
17230;BME280;8731;50.364;8.958;2023-05-20T16:11:40;100052.78;;;21.29;58.28
17230;BME280;8731;50.364;8.958;2023-05-20T16:16:02;100056.38;;;21.68;57.98
17230;BME280;8731;50.364;8.958;2023-05-20T16:20:25;100060.81;;;21.18;59.11
17230;BME280;8731;50.364;8.958;2023-05-20T16:24:49;100056.69;;;21.57;58.47
17230;BME280;8731;50.364;8.958;2023-05-20T16:29:12;100044.72;;;21.97;56.87
17230;BME280;8731;50.364;8.958;2023-05-20T16:33:35;100053.84;;;21.70;57.54
17230;BME280;8731;50.364;8.958;2023-05-20T16:37:57;100048.75;;;21.91;57.08
17230;BME280;8731;50.364;8.958;2023-05-20T16:42:21;100057.97;;;21.84;57.70
17230;BME280;8731;50.364;8.958;2023-05-20T16:46:43;100065.34;;;21.94;57.17
17230;BME280;8731;50.364;8.958;2023-05-20T16:51:06;100064.31;;;21.91;56.89
17230;BME280;8731;50.364;8.958;2023-05-20T16:55:28;100061.41;;;22.02;57.07
17230;BME280;8731;50.364;8.958;2023-05-20T16:59:54;100055.81;;;21.56;59.04
17230;BME280;8731;50.364;8.958;2023-05-20T17:04:17;100064.66;;;21.79;58.89
17230;BME280;8731;50.364;8.958;2023-05-20T17:08:41;100067.88;;;21.56;59.32
17230;BME280;8731;50.364;8.958;2023-05-20T17:13:03;100070.69;;;21.60;59.58
17230;BME280;8731;50.364;8.958;2023-05-20T17:17:27;100076.28;;;21.32;60.22
17230;BME280;8731;50.364;8.958;2023-05-20T17:21:50;100078.41;;;21.41;59.85
17230;BME280;8731;50.364;8.958;2023-05-20T17:26:12;100076.66;;;21.06;61.30
17230;BME280;8731;50.364;8.958;2023-05-20T17:30:35;100089.75;;;21.09;61.04
17230;BME280;8731;50.364;8.958;2023-05-20T17:34:59;100077.09;;;21.15;60.61
17230;BME280;8731;50.364;8.958;2023-05-20T17:39:21;100078.00;;;21.15;60.61
17230;BME280;8731;50.364;8.958;2023-05-20T17:43:44;100076.00;;;21.10;60.82
17230;BME280;8731;50.364;8.958;2023-05-20T17:48:06;100075.03;;;21.08;60.87
17230;BME280;8731;50.364;8.958;2023-05-20T17:52:33;100078.00;;;20.81;61.63
17230;BME280;8731;50.364;8.958;2023-05-20T17:56:56;100081.06;;;20.91;60.92
17230;BME280;8731;50.364;8.958;2023-05-20T18:01:19;100098.53;;;20.95;61.28
17230;BME280;8731;50.364;8.958;2023-05-20T18:05:42;100103.88;;;20.81;62.00
17230;BME280;8731;50.364;8.958;2023-05-20T18:10:09;100113.72;;;20.71;62.17
17230;BME280;8731;50.364;8.958;2023-05-20T18:14:33;100110.75;;;20.63;61.69
17230;BME280;8731;50.364;8.958;2023-05-20T18:18:56;100108.00;;;20.44;62.43
17230;BME280;8731;50.364;8.958;2023-05-20T18:23:18;100107.81;;;20.24;63.21
17230;BME280;8731;50.364;8.958;2023-05-20T18:27:42;100100.53;;;20.17;63.36
17230;BME280;8731;50.364;8.958;2023-05-20T18:32:06;100104.91;;;20.18;63.26
17230;BME280;8731;50.364;8.958;2023-05-20T18:36:29;100103.44;;;20.23;63.08
17230;BME280;8731;50.364;8.958;2023-05-20T18:40:51;100107.47;;;20.02;64.09
17230;BME280;8731;50.364;8.958;2023-05-20T18:45:16;100105.94;;;19.89;64.56
17230;BME280;8731;50.364;8.958;2023-05-20T18:49:40;100113.13;;;19.95;64.66
17230;BME280;8731;50.364;8.958;2023-05-20T18:54:03;100104.41;;;19.93;64.80
17230;BME280;8731;50.364;8.958;2023-05-20T18:58:25;100104.19;;;19.74;64.99
17230;BME280;8731;50.364;8.958;2023-05-20T19:02:49;100095.59;;;19.58;65.60
17230;BME280;8731;50.364;8.958;2023-05-20T19:07:12;100090.94;;;19.53;65.49
17230;BME280;8731;50.364;8.958;2023-05-20T19:11:34;100094.06;;;19.62;65.32
17230;BME280;8731;50.364;8.958;2023-05-20T19:15:57;100090.63;;;19.32;67.36
17230;BME280;8731;50.364;8.958;2023-05-20T19:20:21;100092.56;;;19.36;65.00
17230;BME280;8731;50.364;8.958;2023-05-20T19:24:43;100092.06;;;19.27;67.09
17230;BME280;8731;50.364;8.958;2023-05-20T19:29:06;100098.41;;;19.17;66.31
17230;BME280;8731;50.364;8.958;2023-05-20T19:33:28;100100.72;;;19.13;66.68
17230;BME280;8731;50.364;8.958;2023-05-20T19:37:52;100102.78;;;19.04;67.63
17230;BME280;8731;50.364;8.958;2023-05-20T19:42:15;100113.00;;;18.73;68.65
17230;BME280;8731;50.364;8.958;2023-05-20T19:46:38;100113.28;;;18.77;68.64
17230;BME280;8731;50.364;8.958;2023-05-20T19:51:02;100108.16;;;18.64;69.62
17230;BME280;8731;50.364;8.958;2023-05-20T19:55:26;100113.28;;;18.49;70.43
17230;BME280;8731;50.364;8.958;2023-05-20T19:59:48;100109.22;;;18.67;68.48
17230;BME280;8731;50.364;8.958;2023-05-20T20:04:13;100116.03;;;18.52;68.81
17230;BME280;8731;50.364;8.958;2023-05-20T20:08:37;100107.34;;;18.22;72.27
17230;BME280;8731;50.364;8.958;2023-05-20T20:13:02;100097.69;;;18.33;71.49
17230;BME280;8731;50.364;8.958;2023-05-20T20:17:25;100094.16;;;18.18;71.27
17230;BME280;8731;50.364;8.958;2023-05-20T20:21:48;100088.31;;;18.20;71.75
17230;BME280;8731;50.364;8.958;2023-05-20T20:26:12;100090.25;;;18.09;72.38
17230;BME280;8731;50.364;8.958;2023-05-20T20:30:36;100095.66;;;18.14;70.91
17230;BME280;8731;50.364;8.958;2023-05-20T20:34:58;100097.16;;;17.83;74.35
17230;BME280;8731;50.364;8.958;2023-05-20T20:39:21;100092.66;;;17.93;73.32
17230;BME280;8731;50.364;8.958;2023-05-20T20:43:44;100095.16;;;17.65;75.64
17230;BME280;8731;50.364;8.958;2023-05-20T20:48:08;100088.47;;;17.67;75.45
17230;BME280;8731;50.364;8.958;2023-05-20T20:52:30;100091.41;;;17.73;74.68
17230;BME280;8731;50.364;8.958;2023-05-20T20:56:53;100097.06;;;17.81;73.90
17230;BME280;8731;50.364;8.958;2023-05-20T21:01:15;100086.75;;;17.81;72.80
17230;BME280;8731;50.364;8.958;2023-05-20T21:05:39;100087.16;;;17.74;73.15
17230;BME280;8731;50.364;8.958;2023-05-20T21:10:03;100078.53;;;17.47;76.46
17230;BME280;8731;50.364;8.958;2023-05-20T21:14:27;100069.03;;;17.59;74.47
17230;BME280;8731;50.364;8.958;2023-05-20T21:18:49;100065.06;;;17.64;74.03
17230;BME280;8731;50.364;8.958;2023-05-20T21:23:13;100064.59;;;17.57;72.96
17230;BME280;8731;50.364;8.958;2023-05-20T21:27:36;100058.94;;;17.49;74.82
17230;BME280;8731;50.364;8.958;2023-05-20T21:32:00;100057.16;;;17.48;74.95
17230;BME280;8731;50.364;8.958;2023-05-20T21:36:23;100043.41;;;17.47;74.78
17230;BME280;8731;50.364;8.958;2023-05-20T21:40:48;100047.31;;;17.28;76.70
17230;BME280;8731;50.364;8.958;2023-05-20T21:45:11;100040.25;;;17.38;75.05
17230;BME280;8731;50.364;8.958;2023-05-20T21:49:34;100044.59;;;17.39;74.35
17230;BME280;8731;50.364;8.958;2023-05-20T21:53:57;100041.16;;;17.12;77.25
17230;BME280;8731;50.364;8.958;2023-05-20T21:58:21;100041.94;;;17.25;75.71
17230;BME280;8731;50.364;8.958;2023-05-20T22:02:43;100033.66;;;17.29;75.22
17230;BME280;8731;50.364;8.958;2023-05-20T22:07:06;100029.06;;;17.25;75.14
17230;BME280;8731;50.364;8.958;2023-05-20T22:11:28;100031.75;;;17.00;77.54
17230;BME280;8731;50.364;8.958;2023-05-20T22:15:52;100031.97;;;17.16;75.37
17230;BME280;8731;50.364;8.958;2023-05-20T22:20:15;100019.69;;;17.12;75.56
17230;BME280;8731;50.364;8.958;2023-05-20T22:24:37;100010.28;;;16.99;76.05
17230;BME280;8731;50.364;8.958;2023-05-20T22:29:02;100013.25;;;16.92;76.21
17230;BME280;8731;50.364;8.958;2023-05-20T22:33:27;100005.03;;;16.98;75.55
17230;BME280;8731;50.364;8.958;2023-05-20T22:37:49;99994.69;;;16.83;76.46
17230;BME280;8731;50.364;8.958;2023-05-20T22:42:14;99991.91;;;16.80;76.33
17230;BME280;8731;50.364;8.958;2023-05-20T22:46:36;99991.75;;;16.65;78.40
17230;BME280;8731;50.364;8.958;2023-05-20T22:51:00;99994.22;;;16.64;78.02
17230;BME280;8731;50.364;8.958;2023-05-20T22:55:23;99985.34;;;16.72;76.90
17230;BME280;8731;50.364;8.958;2023-05-20T22:59:46;99982.75;;;16.58;77.40
17230;BME280;8731;50.364;8.958;2023-05-20T23:04:08;99983.06;;;16.63;76.42
17230;BME280;8731;50.364;8.958;2023-05-20T23:08:34;99974.31;;;16.35;79.36
17230;BME280;8731;50.364;8.958;2023-05-20T23:12:57;99976.31;;;16.39;79.05
17230;BME280;8731;50.364;8.958;2023-05-20T23:17:20;99965.72;;;16.47;77.99
17230;BME280;8731;50.364;8.958;2023-05-20T23:21:42;99965.94;;;16.50;77.43
17230;BME280;8731;50.364;8.958;2023-05-20T23:26:07;99959.56;;;16.19;80.06